createdAt,value
2023-05-08T00:00:24.521Z,98450.52
2023-05-08T00:04:29.120Z,98444.55
2023-05-08T00:09:00.603Z,98440.27
2023-05-08T00:13:44.911Z,98448.38
2023-05-08T00:18:12.992Z,98456.45
2023-05-08T00:22:52.656Z,98454.38
2023-05-08T00:27:25.443Z,98453.20
2023-05-08T00:32:09.761Z,98454.95
2023-05-08T00:36:44.741Z,98460.12
2023-05-08T00:40:52.790Z,98457.09
2023-05-08T00:45:17.776Z,98457.64
2023-05-08T00:49:42.057Z,98459.08
2023-05-08T00:54:06.382Z,98454.13
2023-05-08T00:58:31.796Z,98462.02
2023-05-08T01:02:39.757Z,98468.39
2023-05-08T01:07:06.043Z,98470.95
2023-05-08T01:11:29.084Z,98469.77
2023-05-08T01:15:55.136Z,98472.80
2023-05-08T01:20:51.448Z,98466.51
2023-05-08T01:25:36.479Z,98457.85
2023-05-08T01:29:47.797Z,98463.65
2023-05-08T01:34:34.793Z,98471.73
2023-05-08T01:39:15.560Z,98476.44
2023-05-08T01:44:11.820Z,98487.20
2023-05-08T01:48:40.531Z,98483.15
2023-05-08T01:53:04.525Z,98480.24
2023-05-08T01:57:28.969Z,98476.45
2023-05-08T02:01:52.880Z,98474.11
2023-05-08T02:05:57.451Z,98470.23
2023-05-08T02:10:36.392Z,98477.86
2023-05-08T02:15:21.389Z,98473.92
2023-05-08T02:19:47.390Z,98478.36
2023-05-08T02:24:20.815Z,98476.95
2023-05-08T02:29:04.817Z,98479.27
2023-05-08T02:33:48.875Z,98477.79
2023-05-08T02:38:32.994Z,98479.10
2023-05-08T02:42:56.921Z,98477.41
2023-05-08T02:47:37.204Z,98483.90
2023-05-08T02:52:06.829Z,98483.63
2023-05-08T02:56:30.987Z,98481.88
2023-05-08T03:01:16.235Z,98484.48
2023-05-08T03:06:00.316Z,98486.70
2023-05-08T03:10:44.662Z,98489.97
2023-05-08T03:15:35.640Z,98489.29
2023-05-08T03:19:53.337Z,98494.54
2023-05-08T03:24:18.537Z,98499.92
2023-05-08T03:28:47.979Z,98504.73
2023-05-08T03:32:56.371Z,98503.15
2023-05-08T03:37:40.767Z,98502.99
2023-05-08T03:42:20.247Z,98502.15
2023-05-08T03:47:04.613Z,98499.05
2023-05-08T03:51:33.053Z,98502.77
2023-05-08T03:56:04.380Z,98507.94
2023-05-08T04:00:36.457Z,98510.83
2023-05-08T04:05:12.953Z,98516.89
2023-05-08T04:09:53.686Z,98519.77
2023-05-08T04:14:10.717Z,98514.68
2023-05-08T04:18:24.401Z,98522.09
2023-05-08T04:23:10.668Z,98525.17
2023-05-08T04:27:44.926Z,98527.67
2023-05-08T04:32:19.318Z,98534.23
2023-05-08T04:36:47.576Z,98541.11
2023-05-08T04:41:11.951Z,98542.64
2023-05-08T04:45:24.034Z,98544.62
2023-05-08T04:50:08.350Z,98556.23
2023-05-08T04:54:52.569Z,98560.23
2023-05-08T04:59:21.066Z,98566.91
2023-05-08T05:04:06.302Z,98564.00
2023-05-08T05:08:52.781Z,98567.61
2023-05-08T05:13:36.974Z,98568.70
2023-05-08T05:18:22.357Z,98571.70
2023-05-08T05:23:06.581Z,98568.05
2023-05-08T05:27:50.931Z,98571.17
2023-05-08T05:32:35.322Z,98569.20
2023-05-08T05:37:00.820Z,98575.08
2023-05-08T05:41:20.442Z,98582.13
2023-05-08T05:45:46.668Z,98581.81
2023-05-08T05:50:30.735Z,98586.95
2023-05-08T05:55:00.714Z,98594.46
2023-05-08T05:59:27.721Z,98601.46
2023-05-08T06:03:53.189Z,98608.61
2023-05-08T06:08:13.217Z,98607.36
2023-05-08T06:12:37.154Z,98607.84
2023-05-08T06:16:48.993Z,98611.05
2023-05-08T06:21:14.912Z,98610.85
2023-05-08T06:25:46.594Z,98620.29
2023-05-08T06:30:30.544Z,98617.96
2023-05-08T06:34:46.638Z,98621.04
2023-05-08T06:39:15.044Z,98627.02
2023-05-08T06:43:58.886Z,98624.98
2023-05-08T06:48:07.586Z,98629.59
2023-05-08T06:52:25.993Z,98632.90
2023-05-08T06:56:30.297Z,98630.54
2023-05-08T07:00:47.880Z,98641.77
2023-05-08T07:04:33.753Z,98640.73
2023-05-08T07:08:48.718Z,98641.90
2023-05-08T07:13:06.127Z,98649.42
2023-05-08T07:17:19.537Z,98641.23
2023-05-08T07:20:58.689Z,98638.23
2023-05-08T07:24:26.291Z,98650.07
2023-05-08T07:28:32.291Z,98652.45
2023-05-08T07:32:38.310Z,98645.36
2023-05-08T07:36:44.328Z,98658.95
2023-05-08T07:40:28.236Z,98660.70
2023-05-08T07:44:40.559Z,98666.48
2023-05-08T07:48:55.197Z,98663.27
2023-05-08T07:53:38.984Z,98659.86
2023-05-08T07:57:54.955Z,98661.38
2023-05-08T08:01:59.307Z,98674.84
2023-05-08T08:06:43.146Z,98684.21
2023-05-08T08:10:47.014Z,98677.07
2023-05-08T08:14:51.352Z,98683.77
2023-05-08T08:19:06.811Z,98688.86
2023-05-08T08:23:10.866Z,98682.92
2023-05-08T08:27:19.095Z,98687.80
2023-05-08T08:31:28.270Z,98690.71
2023-05-08T08:35:30.379Z,98687.48
2023-05-08T08:39:39.348Z,98684.48
2023-05-08T08:43:47.334Z,98684.83
2023-05-08T08:47:42.272Z,98687.13
2023-05-08T08:51:47.608Z,98690.98
2023-05-08T08:56:08.702Z,98701.89
2023-05-08T09:00:35.836Z,98696.35
2023-05-08T09:04:40.800Z,98700.42
2023-05-08T09:08:49.603Z,98698.02
2023-05-08T09:13:09.183Z,98706.00
2023-05-08T09:16:54.520Z,98709.77
2023-05-08T09:21:18.529Z,98711.70
2023-05-08T09:25:54.738Z,98712.23
2023-05-08T09:30:44.494Z,98719.61
2023-05-08T09:35:14.354Z,98712.58
2023-05-08T09:39:53.147Z,98701.90
2023-05-08T09:44:14.764Z,98703.48
2023-05-08T09:48:24.706Z,98696.16
2023-05-08T09:52:52.714Z,98703.20
2023-05-08T09:57:32.667Z,98699.88
2023-05-08T10:01:40.969Z,98708.59
2023-05-08T10:06:09.700Z,98704.20
2023-05-08T10:10:52.867Z,98702.25
2023-05-08T10:14:57.707Z,98695.61
2023-05-08T10:19:07.262Z,98703.52
2023-05-08T10:23:15.826Z,98692.19
2023-05-08T10:28:06.079Z,98689.48
2023-05-08T10:32:22.064Z,98697.61
2023-05-08T10:36:08.432Z,98693.80
2023-05-08T10:40:10.899Z,98696.03
2023-05-08T10:44:24.848Z,98705.80
2023-05-08T10:48:47.866Z,98698.73
2023-05-08T10:53:43.413Z,98696.64
2023-05-08T10:57:56.332Z,98695.94
2023-05-08T11:01:55.025Z,98695.79
2023-05-08T11:06:15.797Z,98697.61
2023-05-08T11:10:43.205Z,98693.48
2023-05-08T11:14:34.918Z,98686.20
2023-05-08T11:22:57.494Z,98678.25
2023-05-08T11:27:22.644Z,98666.95
2023-05-08T11:31:12.466Z,98662.83
2023-05-08T11:35:17.117Z,98657.93
2023-05-08T11:39:36.756Z,98660.69
2023-05-08T11:43:19.399Z,98663.06
2023-05-08T11:46:52.403Z,98669.50
2023-05-08T11:50:18.709Z,98665.98
2023-05-08T11:53:47.838Z,98665.23
2023-05-08T11:57:24.976Z,98665.48
2023-05-08T12:01:07.374Z,98662.17
2023-05-08T12:05:12.883Z,98664.21
2023-05-08T12:09:15.475Z,98673.65
2023-05-08T12:13:32.161Z,98657.14
2023-05-08T12:17:39.955Z,98662.28
2023-05-08T12:21:22.253Z,98655.70
2023-05-08T12:24:51.931Z,98659.39
2023-05-08T12:28:17.643Z,98656.86
2023-05-08T12:31:52.428Z,98662.63
2023-05-08T12:35:31.664Z,98660.24
2023-05-08T12:39:09.251Z,98664.20
2023-05-08T12:42:50.951Z,98662.43
2023-05-08T12:46:18.026Z,98656.58
2023-05-08T12:49:57.765Z,98655.22
2023-05-08T12:53:25.025Z,98660.67
2023-05-08T12:57:01.419Z,98655.88
2023-05-08T13:00:39.388Z,98664.84
2023-05-08T13:04:37.932Z,98662.65
2023-05-08T13:09:26.577Z,98659.27
2023-05-08T13:12:52.171Z,98655.10
2023-05-08T13:16:36.150Z,98668.15
2023-05-08T13:20:35.923Z,98660.54
2023-05-08T13:24:05.260Z,98658.67
2023-05-08T13:27:43.537Z,98652.47
2023-05-08T13:31:27.641Z,98654.50
2023-05-08T13:35:13.530Z,98653.58
2023-05-08T13:39:16.729Z,98647.53
2023-05-08T13:43:04.537Z,98650.52
2023-05-08T13:47:07.091Z,98642.55
2023-05-08T13:50:43.908Z,98652.11
2023-05-08T13:54:11.372Z,98654.44
2023-05-08T13:57:35.982Z,98654.10
2023-05-08T14:01:13.827Z,98647.95
2023-05-08T14:05:00.344Z,98647.38
2023-05-08T14:08:47.163Z,98649.17
2023-05-08T14:12:16.309Z,98640.23
2023-05-08T14:16:08.841Z,98630.88
2023-05-08T14:19:52.730Z,98646.63
2023-05-08T14:23:27.920Z,98645.70
2023-05-08T14:26:54.312Z,98650.23
2023-05-08T14:30:21.850Z,98643.10
2023-05-08T14:33:46.473Z,98652.93
2023-05-08T14:37:12.769Z,98647.36
2023-05-08T14:40:40.582Z,98643.07
2023-05-08T14:44:02.354Z,98652.02
2023-05-08T14:47:30.458Z,98652.19
2023-05-08T14:51:16.082Z,98651.89
2023-05-08T14:54:59.704Z,98650.63
2023-05-08T14:58:42.680Z,98640.17
2023-05-08T15:02:04.708Z,98643.05
2023-05-08T15:05:30.669Z,98650.27
2023-05-08T15:09:16.055Z,98650.97
2023-05-08T15:13:06.617Z,98651.57
2023-05-08T15:16:29.732Z,98652.16
2023-05-08T15:19:56.532Z,98650.35
2023-05-08T15:23:43.696Z,98656.30
2023-05-08T15:27:21.653Z,98644.27
2023-05-08T15:31:17.416Z,98653.41
2023-05-08T15:35:02.866Z,98653.05
2023-05-08T15:38:35.737Z,98655.02
2023-05-08T15:42:05.791Z,98653.44
2023-05-08T15:45:31.585Z,98655.15
2023-05-08T15:49:01.935Z,98651.67
2023-05-08T15:52:36.210Z,98651.27
2023-05-08T15:56:24.685Z,98646.71
2023-05-08T15:59:57.940Z,98655.23
2023-05-08T16:03:37.797Z,98656.02
2023-05-08T16:07:22.163Z,98652.27
2023-05-08T16:11:08.925Z,98644.82
2023-05-08T16:15:12.445Z,98644.56
2023-05-08T16:19:17.225Z,98641.52
2023-05-08T16:23:16.218Z,98644.42
2023-05-08T16:26:37.942Z,98639.45
2023-05-08T16:30:17.622Z,98640.85
2023-05-08T16:34:20.332Z,98642.68
2023-05-08T16:38:09.904Z,98639.33
2023-05-08T16:42:14.047Z,98639.46
2023-05-08T16:46:09.455Z,98639.20
2023-05-08T16:49:55.304Z,98636.83
2023-05-08T16:53:58.135Z,98633.41
2023-05-08T16:58:05.778Z,98636.79
2023-05-08T17:02:26.307Z,98630.23
2023-05-08T17:06:17.755Z,98635.23
2023-05-08T17:09:53.400Z,98629.56
2023-05-08T17:13:26.392Z,98625.73
2023-05-08T17:16:48.720Z,98625.23
2023-05-08T17:20:47.949Z,98635.73
2023-05-08T17:24:15.260Z,98628.88
2023-05-08T17:27:57.935Z,98625.77
2023-05-08T17:31:43.899Z,98619.28
2023-05-08T17:35:30.048Z,98616.39
2023-05-08T17:38:59.408Z,98617.30
2023-05-08T17:42:21.286Z,98620.64
2023-05-08T17:46:15.443Z,98621.91
2023-05-08T17:50:18.217Z,98624.75
2023-05-08T17:54:22.907Z,98627.05
2023-05-08T17:58:29.721Z,98632.13
2023-05-08T18:02:52.172Z,98633.67
2023-05-08T18:07:14.734Z,98634.02
2023-05-08T18:11:21.670Z,98632.85
2023-05-08T18:15:19.769Z,98635.70
2023-05-08T18:19:22.856Z,98638.19
2023-05-08T18:23:49.357Z,98641.35
2023-05-08T18:28:19.689Z,98639.45
2023-05-08T18:32:38.789Z,98643.14
2023-05-08T18:37:01.095Z,98646.80
2023-05-08T18:41:38.877Z,98645.59
2023-05-08T18:46:26.119Z,98646.81
2023-05-08T18:50:52.452Z,98651.88
2023-05-08T18:55:27.380Z,98660.50
2023-05-08T18:59:30.068Z,98662.91
2023-05-08T19:03:52.270Z,98664.91
2023-05-08T19:08:36.580Z,98668.48
2023-05-08T19:12:59.451Z,98662.77
2023-05-08T19:17:02.223Z,98659.80
2023-05-08T19:21:33.475Z,98658.67
2023-05-08T19:25:59.952Z,98652.90
2023-05-08T19:30:22.557Z,98647.14
2023-05-08T19:34:45.720Z,98646.98
2023-05-08T19:39:25.913Z,98650.52
2023-05-08T19:44:03.668Z,98652.65
2023-05-08T19:48:33.981Z,98648.36
2023-05-08T19:52:57.474Z,98646.64
2023-05-08T19:57:24.178Z,98639.41
2023-05-08T20:01:51.234Z,98638.04
2023-05-08T20:06:33.993Z,98633.80
2023-05-08T20:11:17.181Z,98634.17
2023-05-08T20:15:09.096Z,98632.18
2023-05-08T20:19:51.387Z,98629.14
2023-05-08T20:23:55.751Z,98623.64
2023-05-08T20:28:19.377Z,98629.63
2023-05-08T20:32:54.858Z,98623.30
2023-05-08T20:37:21.448Z,98616.23
2023-05-08T20:41:39.833Z,98616.50
2023-05-08T20:46:03.988Z,98616.86
2023-05-08T20:50:27.807Z,98614.17
2023-05-08T20:54:46.740Z,98612.45
2023-05-08T20:59:29.611Z,98607.48
2023-05-08T21:03:57.217Z,98607.87
2023-05-08T21:08:41.254Z,98607.33
2023-05-08T21:13:24.342Z,98603.01
2023-05-08T21:24:20.526Z,98595.13
2023-05-08T21:29:06.950Z,98589.56
2023-05-08T21:33:46.103Z,98589.36
2023-05-08T21:38:30.653Z,98586.05
2023-05-08T21:43:19.863Z,98589.41
2023-05-08T21:48:06.519Z,98584.70
2023-05-08T21:52:50.229Z,98583.27
2023-05-08T21:57:15.374Z,98591.00
2023-05-08T22:01:43.678Z,98591.91
2023-05-08T22:06:27.755Z,98586.02
2023-05-08T22:10:47.803Z,98580.56
2023-05-08T22:15:02.497Z,98575.64
2023-05-08T22:19:46.804Z,98566.30
2023-05-08T22:24:23.586Z,98564.65
2023-05-08T22:29:08.705Z,98565.16
2023-05-08T22:33:20.821Z,98567.19
2023-05-08T22:38:05.512Z,98573.35
2023-05-08T22:42:50.991Z,98566.41
2023-05-08T22:47:16.892Z,98562.40
2023-05-08T23:03:22.965Z,98556.52
2023-05-08T23:08:06.863Z,98554.38
2023-05-08T23:12:32.107Z,98551.98
2023-05-08T23:17:16.375Z,98551.60
2023-05-08T23:22:00.770Z,98551.69
2023-05-08T23:26:27.852Z,98556.38
2023-05-08T23:30:55.801Z,98548.77
2023-05-08T23:35:21.934Z,98550.02
2023-05-08T23:39:29.908Z,98541.91
2023-05-08T23:43:44.166Z,98537.89
2023-05-08T23:48:31.554Z,98532.80
2023-05-08T23:53:15.611Z,98529.73
2023-05-08T23:57:47.082Z,98522.88
